Time;durP1;ratioP1;P1;durP2;ratioP2;P2;SDS_P1;SDS_P2;PMS_P1;PMS_P2;Temp;Humidity;BMP_temperature;BMP_pressure;BME280_temperature;BME280_humidity;BME280_pressure;Samples;Min_cycle;Max_cycle;Signal;HPM_P1;HPM_P2
2022/03/08 00:02:10;;;;;;;45.80;19.88;;;;;;;-1.29;nan;100821.78;5076934;28;20031;-71
2022/03/08 00:04:36;;;;;;;44.85;19.85;;;;;;;-1.28;nan;100831.13;5078204;28;20549;-71
2022/03/08 00:07:02;;;;;;;44.85;20.17;;;;;;;-1.14;nan;100845.41;5083522;28;20537;-71
2022/03/08 00:09:28;;;;;;;46.20;19.90;;;;;;;-1.60;nan;100813.34;5078297;28;20481;-70
2022/03/08 00:11:53;;;;;;;43.20;19.85;;;;;;;-1.39;nan;100851.94;5072204;28;20081;-71
2022/03/08 00:14:19;;;;;;;52.35;21.95;;;;;;;-1.40;nan;100858.88;5079606;28;20028;-71
2022/03/08 00:16:45;;;;;;;49.97;21.98;;;;;;;-1.50;nan;100847.72;5083706;28;20028;-71
2022/03/08 00:19:11;;;;;;;46.75;20.77;;;;;;;-1.51;nan;100839.19;5073648;28;20043;-71
2022/03/08 00:21:36;;;;;;;54.53;22.40;;;;;;;-1.43;nan;100842.84;5071852;28;20025;-71
2022/03/08 00:24:02;;;;;;;47.17;21.27;;;;;;;-1.44;nan;100838.63;5078325;28;20393;-72
2022/03/08 00:26:27;;;;;;;45.65;20.83;;;;;;;-1.75;nan;100792.25;5077219;28;20032;-71
2022/03/08 00:28:53;;;;;;;48.42;21.85;;;;;;;-1.52;nan;100832.34;5074911;28;20582;-72
2022/03/08 00:31:18;;;;;;;47.35;21.63;;;;;;;-1.58;nan;100827.75;5071404;28;20120;-71
2022/03/08 00:33:44;;;;;;;47.40;21.63;;;;;;;-1.47;nan;100831.16;5076315;28;20028;-72
2022/03/08 00:36:09;;;;;;;50.35;21.75;;;;;;;-1.44;nan;100830.88;5084872;28;20052;-71
2022/03/08 00:38:35;;;;;;;52.95;22.73;;;;;;;-1.39;nan;100833.84;5078334;28;20036;-71
2022/03/08 00:41:01;;;;;;;45.67;21.38;;;;;;;-1.43;nan;100819.59;5070778;28;20032;-71
2022/03/08 00:43:26;;;;;;;52.45;22.45;;;;;;;-1.43;nan;100822.19;5076850;28;20476;-71
2022/03/08 00:45:52;;;;;;;48.05;21.88;;;;;;;-1.38;nan;100835.50;5075542;28;20055;-72
2022/03/08 00:48:18;;;;;;;53.00;22.23;;;;;;;-1.48;nan;100811.41;5077039;28;20044;-70
2022/03/08 00:50:43;;;;;;;49.05;21.88;;;;;;;-1.46;nan;100817.28;5075024;28;20030;-72
2022/03/08 00:53:09;;;;;;;50.58;21.80;;;;;;;-1.56;nan;100791.44;5060940;28;20727;-72
2022/03/08 00:55:35;;;;;;;51.90;20.88;;;;;;;-1.39;nan;100813.19;5074938;28;21820;-72
2022/03/08 00:58:02;;;;;;;49.42;21.42;;;;;;;-1.30;nan;100825.28;5076288;28;20028;-72
2022/03/08 01:00:30;;;;;;;49.08;21.45;;;;;;;-1.41;nan;100822.84;5101980;28;20039;-71
2022/03/08 01:02:55;;;;;;;49.75;21.77;;;;;;;-1.50;nan;100817.56;5074072;28;20035;-71
2022/03/08 01:05:21;;;;;;;47.47;20.73;;;;;;;-1.54;nan;100818.75;5091626;28;20362;-71
2022/03/08 01:07:47;;;;;;;52.78;21.63;;;;;;;-1.57;nan;100824.22;5100874;28;20527;-71
2022/03/08 01:10:16;;;;;;;51.13;22.30;;;;;;;-1.56;nan;100825.03;5101478;28;20055;-72
2022/03/08 01:12:43;;;;;;;47.00;20.80;;;;;;;-1.73;nan;100798.09;5096236;28;20024;-71
2022/03/08 01:15:10;;;;;;;48.10;21.27;;;;;;;-1.72;nan;100805.72;5092400;28;20085;-71
2022/03/08 01:17:36;;;;;;;49.53;20.98;;;;;;;-1.63;nan;100821.34;5086289;28;20032;-71
2022/03/08 01:20:02;;;;;;;51.33;22.10;;;;;;;-1.71;nan;100801.38;5101380;28;20047;-70
2022/03/08 01:22:27;;;;;;;48.78;21.13;;;;;;;-1.67;nan;100800.16;5090937;28;20119;-71
2022/03/08 01:24:53;;;;;;;48.15;21.63;;;;;;;-1.57;nan;100805.31;5098751;28;20141;-71
2022/03/08 01:27:18;;;;;;;53.42;21.55;;;;;;;-1.63;nan;100806.66;5100576;28;20447;-71
2022/03/08 01:29:44;;;;;;;56.03;21.05;;;;;;;-1.70;nan;100805.56;5085062;28;20057;-70
2022/03/08 01:32:09;;;;;;;49.35;21.15;;;;;;;-1.68;nan;100802.88;5094252;28;20111;-70
2022/03/08 01:34:35;;;;;;;51.22;21.27;;;;;;;-1.72;nan;100800.56;5096027;28;20561;-70
2022/03/08 01:37:04;;;;;;;50.15;21.63;;;;;;;-1.72;nan;100792.00;5095477;28;20028;-69
2022/03/08 01:39:29;;;;;;;46.38;20.25;;;;;;;-1.71;nan;100793.63;5072297;28;20447;-70
2022/03/08 01:41:55;;;;;;;54.65;21.42;;;;;;;-1.73;nan;100791.16;5094238;28;20059;-70
2022/03/08 01:44:20;;;;;;;51.22;21.65;;;;;;;-1.69;nan;100790.91;5104620;28;20109;-70
2022/03/08 01:46:46;;;;;;;52.95;20.90;;;;;;;-1.65;nan;100807.75;5095813;28;20084;-71
2022/03/08 01:49:11;;;;;;;50.17;21.85;;;;;;;-1.64;nan;100804.22;5098684;28;20119;-70
2022/03/08 01:51:39;;;;;;;52.15;21.50;;;;;;;-1.70;nan;100797.81;5086476;28;20501;-69
2022/03/08 01:54:06;;;;;;;45.78;19.60;;;;;;;-1.63;nan;100809.25;5094336;28;20031;-70
2022/03/08 01:56:32;;;;;;;54.55;21.33;;;;;;;-1.64;nan;100802.47;5099159;28;20457;-70
2022/03/08 01:58:57;;;;;;;48.00;21.45;;;;;;;-1.68;nan;100790.75;5096383;28;20040;-71
2022/03/08 02:01:23;;;;;;;52.03;22.67;;;;;;;-1.64;nan;100796.50;5080712;28;20119;-72
2022/03/08 02:03:48;;;;;;;52.75;21.42;;;;;;;-1.64;nan;100793.91;5099678;28;20111;-71
2022/03/08 02:06:14;;;;;;;48.17;20.90;;;;;;;-1.71;nan;100780.72;5095894;28;20032;-71
2022/03/08 02:08:41;;;;;;;49.25;20.08;;;;;;;-1.67;nan;100784.66;5099137;28;20028;-70
2022/03/08 02:11:06;;;;;;;49.03;21.40;;;;;;;-1.62;nan;100792.81;5090516;28;20042;-70
2022/03/08 02:13:31;;;;;;;46.03;20.05;;;;;;;-1.69;nan;100776.25;5094665;28;20032;-69
2022/03/08 02:15:57;;;;;;;51.42;21.38;;;;;;;-1.82;nan;100753.28;5097808;28;20032;-71
2022/03/08 02:18:22;;;;;;;52.35;20.90;;;;;;;-1.70;nan;100772.00;5101897;28;20039;-72
2022/03/08 02:20:48;;;;;;;51.17;21.10;;;;;;;-1.69;nan;100773.66;5076664;28;20035;-71
2022/03/08 02:23:13;;;;;;;47.67;20.90;;;;;;;-1.59;nan;100784.78;5106005;28;20035;-70
2022/03/08 02:25:40;;;;;;;50.42;21.38;;;;;;;-1.57;nan;100785.47;5109665;28;20024;-71
2022/03/08 02:28:06;;;;;;;49.33;21.50;;;;;;;-1.62;nan;100772.16;5115035;28;20048;-70
2022/03/08 02:30:32;;;;;;;49.13;22.17;;;;;;;-1.60;nan;100785.75;5108062;28;20100;-71
2022/03/08 02:32:58;;;;;;;47.78;20.73;;;;;;;-1.71;nan;100767.81;5108739;28;20067;-71
2022/03/08 02:35:26;;;;;;;50.70;20.75;;;;;;;-1.65;nan;100769.84;5097397;28;20051;-71
2022/03/08 02:38:00;;;;;;;48.80;20.70;;;;;;;-1.58;nan;100783.84;5100141;28;20130;-71
2022/03/08 02:40:32;;;;;;;43.88;19.95;;;;;;;-1.57;nan;100782.09;5093323;28;20044;-71
2022/03/08 02:42:58;;;;;;;50.58;19.90;;;;;;;-1.61;nan;100789.28;5097501;28;20032;-71
2022/03/08 02:45:24;;;;;;;48.83;19.88;;;;;;;-1.63;nan;100780.84;5099146;28;20464;-71
2022/03/08 02:47:50;;;;;;;49.28;20.83;;;;;;;-1.92;nan;100734.38;5099818;28;20135;-71
2022/03/08 02:50:17;;;;;;;54.97;21.50;;;;;;;-1.55;nan;100787.94;5095151;28;20036;-72
2022/03/08 02:52:44;;;;;;;47.63;19.58;;;;;;;-1.67;nan;100758.03;5100697;28;20032;-71
2022/03/08 02:55:11;;;;;;;51.20;20.63;;;;;;;-1.61;nan;100773.78;5107509;28;20054;-70
2022/03/08 02:57:38;;;;;;;49.70;20.55;;;;;;;-1.56;nan;100781.94;5093039;28;20067;-71
2022/03/08 03:00:05;;;;;;;45.75;20.27;;;;;;;-1.54;nan;100784.38;5093617;28;20044;-70
2022/03/08 03:02:31;;;;;;;45.85;19.65;;;;;;;-1.66;nan;100760.47;5097472;28;20482;-71
2022/03/08 03:04:56;;;;;;;42.10;19.00;;;;;;;-1.57;nan;100779.50;5101950;28;20085;-71
2022/03/08 03:07:24;;;;;;;48.22;19.50;;;;;;;-1.55;nan;100780.19;5100175;28;20035;-72
2022/03/08 03:09:50;;;;;;;43.15;19.08;;;;;;;-1.57;nan;100776.91;5099075;28;20028;-71
2022/03/08 03:12:16;;;;;;;46.55;20.30;;;;;;;-1.48;nan;100785.59;5100151;28;20039;-71
2022/03/08 03:14:41;;;;;;;47.50;20.63;;;;;;;-1.54;nan;100774.88;5098380;28;20611;-71
2022/03/08 03:17:07;;;;;;;45.65;19.17;;;;;;;-1.55;nan;100790.50;5082630;28;20036;-71
2022/03/08 03:19:32;;;;;;;43.35;19.15;;;;;;;-1.60;nan;100778.00;5101252;28;20523;-71
2022/03/08 03:21:58;;;;;;;53.45;19.33;;;;;;;-1.56;nan;100791.44;5103908;28;20031;-71
2022/03/08 03:24:23;;;;;;;48.95;19.88;;;;;;;-1.54;nan;100777.44;5097316;28;20043;-71
2022/03/08 03:26:48;;;;;;;43.75;19.17;;;;;;;-1.60;nan;100775.44;5093579;28;20024;-71
2022/03/08 03:29:14;;;;;;;45.17;19.27;;;;;;;-1.55;nan;100793.91;5092183;28;20093;-71
2022/03/08 03:31:39;;;;;;;46.65;18.70;;;;;;;-1.61;nan;100776.34;5103369;28;20123;-70
2022/03/08 03:34:04;;;;;;;44.65;18.33;;;;;;;-1.55;nan;100781.00;5095059;28;20024;-70
2022/03/08 03:36:30;;;;;;;42.30;18.77;;;;;;;-1.61;nan;100778.13;5094383;28;20032;-72
2022/03/08 03:38:55;;;;;;;42.42;17.63;;;;;;;-1.80;nan;100745.38;5096634;28;20449;-72
2022/03/08 03:41:21;;;;;;;37.75;17.70;;;;;;;-1.58;nan;100778.69;5094068;28;20038;-72
2022/03/08 03:43:46;;;;;;;48.08;19.13;;;;;;;-1.58;nan;100776.09;5093268;28;20032;-71
2022/03/08 03:46:11;;;;;;;39.55;17.77;;;;;;;-1.65;nan;100761.28;5074599;28;20132;-71
2022/03/08 03:48:37;;;;;;;47.65;19.30;;;;;;;-1.64;nan;100773.25;5107322;28;20110;-71
2022/03/08 03:51:03;;;;;;;47.92;19.50;;;;;;;-1.61;nan;100785.88;5095542;28;20381;-72
2022/03/08 03:53:29;;;;;;;45.20;19.20;;;;;;;-1.61;nan;100789.28;5097992;28;20031;-71
2022/03/08 03:55:54;;;;;;;43.78;19.15;;;;;;;-1.63;nan;100787.78;5102787;28;20382;-70
2022/03/08 03:58:20;;;;;;;42.58;19.30;;;;;;;-1.63;nan;100786.00;5107498;28;20379;-69
2022/03/08 04:00:45;;;;;;;49.58;19.77;;;;;;;-1.72;nan;100784.25;5097323;28;20027;-70
2022/03/08 04:03:11;;;;;;;44.53;19.00;;;;;;;-1.72;nan;100784.25;5098219;28;20028;-71
2022/03/08 04:05:37;;;;;;;46.90;19.13;;;;;;;-1.77;nan;100778.69;5102405;28;20059;-71
2022/03/08 04:08:02;;;;;;;46.10;19.27;;;;;;;-1.71;nan;100809.13;5099680;28;20039;-71
2022/03/08 04:10:28;;;;;;;46.55;18.65;;;;;;;-1.76;nan;100808.72;5097879;28;20035;-72
2022/03/08 04:12:54;;;;;;;47.30;19.42;;;;;;;-1.86;nan;100785.47;5098395;28;20039;-72
2022/03/08 04:15:19;;;;;;;43.30;19.58;;;;;;;-1.81;nan;100809.09;5102495;28;20031;-72
2022/03/08 04:17:44;;;;;;;42.17;18.98;;;;;;;-1.83;nan;100807.59;5099318;28;20065;-71
2022/03/08 04:20:11;;;;;;;43.70;19.48;;;;;;;-1.87;nan;100809.63;5083400;28;20076;-71
2022/03/08 04:22:37;;;;;;;47.72;19.55;;;;;;;-1.87;nan;100813.97;5082678;28;20512;-73
2022/03/08 04:25:04;;;;;;;47.70;19.77;;;;;;;-1.98;nan;100805.41;5101257;28;20043;-70
2022/03/08 04:27:29;;;;;;;41.80;18.73;;;;;;;-2.39;nan;100740.16;5088518;28;20039;-71
2022/03/08 04:29:54;;;;;;;45.88;20.10;;;;;;;-1.95;nan;100805.13;5082515;28;20082;-72
2022/03/08 04:32:20;;;;;;;53.58;21.35;;;;;;;-2.03;nan;100802.41;5093881;28;20111;-71
2022/03/08 04:34:46;;;;;;;51.10;20.73;;;;;;;-2.26;nan;100772.63;5082601;28;20409;-71
2022/03/08 04:37:11;;;;;;;54.85;20.10;;;;;;;-2.04;nan;100807.69;5094041;28;20043;-72
2022/03/08 04:39:36;;;;;;;60.15;20.35;;;;;;;-2.09;nan;100800.34;5094821;28;20062;-71
2022/03/08 04:42:03;;;;;;;48.88;19.80;;;;;;;-2.06;nan;100804.44;5095074;28;20059;-72
2022/03/08 04:44:28;;;;;;;49.60;19.75;;;;;;;-2.19;nan;100794.38;5099599;28;20040;-71
2022/03/08 04:46:53;;;;;;;45.13;18.92;;;;;;;-2.21;nan;100798.84;5091990;28;20548;-70
2022/03/08 04:49:19;;;;;;;48.38;19.20;;;;;;;-2.18;nan;100814.03;5102074;28;20032;-71
2022/03/08 04:51:44;;;;;;;52.63;20.27;;;;;;;-2.24;nan;100814.59;5096424;28;20039;-71
2022/03/08 04:54:10;;;;;;;46.33;18.88;;;;;;;-2.33;nan;100795.53;5079644;28;20068;-73
2022/03/08 04:56:35;;;;;;;44.60;19.02;;;;;;;-2.32;nan;100798.94;5077632;28;20039;-70
2022/03/08 04:59:01;;;;;;;47.28;20.45;;;;;;;-2.36;nan;100795.81;5091631;28;20044;-71
2022/03/08 05:01:26;;;;;;;45.83;19.52;;;;;;;-2.29;nan;100825.28;5091605;28;20096;-70
2022/03/08 05:03:51;;;;;;;47.90;19.40;;;;;;;-2.28;nan;100823.53;5094531;28;20035;-70
2022/03/08 05:06:18;;;;;;;47.65;20.27;;;;;;;-2.28;nan;100834.66;5094412;28;20047;-71
2022/03/08 05:08:44;;;;;;;47.38;19.25;;;;;;;-2.28;nan;100829.50;5106586;28;20036;-73
2022/03/08 05:11:09;;;;;;;47.70;19.58;;;;;;;-2.34;nan;100831.81;5095375;28;20036;-72
2022/03/08 05:13:35;;;;;;;45.65;18.98;;;;;;;-2.33;nan;100841.97;5095299;28;20024;-73
2022/03/08 05:16:01;;;;;;;46.95;20.95;;;;;;;-2.36;nan;100843.03;5086610;28;20153;-73
2022/03/08 05:18:27;;;;;;;51.85;20.33;;;;;;;-2.44;nan;100829.16;5082936;28;20036;-72
2022/03/08 05:20:52;;;;;;;48.92;20.42;;;;;;;-2.80;nan;100795.25;5084004;28;20478;-73
2022/03/08 05:23:18;;;;;;;43.85;18.85;;;;;;;-2.55;nan;100829.25;5088754;28;20040;-72
2022/03/08 05:25:43;;;;;;;47.17;20.23;;;;;;;-2.45;nan;100845.59;5100685;28;20032;-72
2022/03/08 05:28:09;;;;;;;49.53;21.60;;;;;;;-2.41;nan;100845.19;5096213;28;20443;-72
2022/03/08 05:30:35;;;;;;;47.92;20.52;;;;;;;-2.45;nan;100841.25;5095192;28;20067;-72
2022/03/08 05:33:00;;;;;;;41.92;19.23;;;;;;;-2.50;nan;100840.00;5098792;28;20028;-72
2022/03/08 05:35:26;;;;;;;46.67;20.48;;;;;;;-2.59;nan;100826.94;5111887;28;20035;-72
2022/03/08 05:37:52;;;;;;;54.88;20.00;;;;;;;-2.73;nan;100819.56;5110007;28;20034;-72
2022/03/08 05:40:17;;;;;;;48.10;19.55;;;;;;;-2.64;nan;100829.06;5112819;28;20067;-71
2022/03/08 05:42:43;;;;;;;46.72;19.20;;;;;;;-2.61;nan;100843.47;5110059;28;20036;-71
2022/03/08 05:45:10;;;;;;;48.05;20.83;;;;;;;-2.67;nan;100852.53;5085547;28;20038;-72
2022/03/08 05:47:38;;;;;;;43.97;18.60;;;;;;;-2.79;nan;100851.78;5088627;28;20039;-72
2022/03/08 05:50:05;;;;;;;49.03;20.23;;;;;;;-2.73;nan;100849.66;5096755;28;20040;-72
2022/03/08 05:52:30;;;;;;;50.95;20.30;;;;;;;-2.76;nan;100842.19;5098570;28;20028;-72
2022/03/08 05:54:56;;;;;;;48.47;19.70;;;;;;;-2.93;nan;100797.19;5092996;28;20110;-72
2022/03/08 05:57:21;;;;;;;48.35;20.70;;;;;;;-2.77;nan;100825.91;5092561;28;20081;-73
2022/03/08 05:59:49;;;;;;;54.30;23.13;;;;;;;-2.67;nan;100842.22;5078324;28;20051;-73
2022/03/08 06:02:16;;;;;;;56.60;21.55;;;;;;;-2.69;nan;100838.97;5077766;28;20044;-74
2022/03/08 06:04:42;;;;;;;50.70;20.70;;;;;;;-2.64;nan;100841.97;5082692;28;20114;-73
2022/03/08 06:07:07;;;;;;;47.60;20.40;;;;;;;-2.58;nan;100850.97;5099616;28;20331;-73
2022/03/08 06:09:33;;;;;;;52.72;20.30;;;;;;;-2.51;nan;100858.97;5097871;28;20032;-72
2022/03/08 06:12:00;;;;;;;57.88;20.83;;;;;;;-2.53;nan;100846.25;5088293;28;20098;-72
2022/03/08 06:14:26;;;;;;;54.42;21.38;;;;;;;-2.50;nan;100840.00;5093180;28;20038;-74
2022/03/08 06:16:51;;;;;;;50.28;20.67;;;;;;;-2.36;nan;100848.22;5100264;28;20047;-74
2022/03/08 06:19:17;;;;;;;45.53;18.83;;;;;;;-2.43;nan;100844.50;5072324;28;20082;-73
2022/03/08 06:21:42;;;;;;;44.42;19.42;;;;;;;-2.24;nan;100879.06;5091247;28;20059;-74
2022/03/08 06:24:07;;;;;;;49.22;19.67;;;;;;;-2.19;nan;100889.81;5072222;28;20107;-73
2022/03/08 06:26:33;;;;;;;42.55;18.45;;;;;;;-2.19;nan;100888.06;5094207;28;20068;-74
2022/03/08 06:28:59;;;;;;;50.97;21.30;;;;;;;-2.14;nan;100885.09;5080737;28;20110;-74
2022/03/08 06:31:24;;;;;;;44.35;19.25;;;;;;;-2.18;nan;100871.63;5093854;28;20143;-74
2022/03/08 06:33:50;;;;;;;41.95;19.08;;;;;;;-2.08;nan;100876.84;5101198;28;20020;-74
2022/03/08 06:36:15;;;;;;;43.90;19.27;;;;;;;-1.97;nan;100888.81;5099060;28;20090;-74
2022/03/08 06:38:41;;;;;;;42.22;18.13;;;;;;;-2.04;nan;100870.44;5094497;28;20040;-74
2022/03/08 06:41:07;;;;;;;44.83;17.25;;;;;;;-2.00;nan;100876.19;5080056;28;20020;-75
2022/03/08 06:43:32;;;;;;;38.75;17.83;;;;;;;-1.85;nan;100899.84;5108856;28;20034;-74
2022/03/08 06:45:58;;;;;;;40.25;18.33;;;;;;;-1.95;nan;100879.97;5100453;28;20024;-74
2022/03/08 06:48:23;;;;;;;42.28;18.15;;;;;;;-1.80;nan;100893.34;5096774;28;20042;-73
2022/03/08 06:50:48;;;;;;;38.50;17.25;;;;;;;-1.82;nan;100882.34;5102029;28;20110;-74
2022/03/08 06:53:14;;;;;;;41.90;16.42;;;;;;;-1.71;nan;100889.16;5096962;28;20089;-74
2022/03/08 06:55:39;;;;;;;39.08;17.55;;;;;;;-1.72;nan;100888.34;5088677;28;20465;-73
2022/03/08 06:58:05;;;;;;;42.10;17.65;;;;;;;-1.74;nan;100877.31;5082060;28;20035;-74
2022/03/08 07:00:31;;;;;;;39.17;17.33;;;;;;;-1.66;nan;100868.91;5089596;28;20028;-74
2022/03/08 07:02:57;;;;;;;35.70;16.58;;;;;;;-1.56;nan;100897.31;5095968;28;20036;-74
2022/03/08 07:05:22;;;;;;;36.58;16.92;;;;;;;-1.53;nan;100895.31;5085577;28;20085;-74
2022/03/08 07:07:47;;;;;;;33.05;16.58;;;;;;;-1.39;nan;100907.03;5098979;28;20405;-73
2022/03/08 07:10:13;;;;;;;41.58;18.88;;;;;;;-1.36;nan;100904.16;5096598;28;20032;-75
2022/03/08 07:12:39;;;;;;;39.85;17.85;;;;;;;-1.33;nan;100896.13;5095720;28;20304;-75
2022/03/08 07:15:06;;;;;;;42.65;18.08;;;;;;;-1.12;nan;100915.88;5076220;28;20035;-76
2022/03/08 07:17:31;;;;;;;42.42;18.55;;;;;;;-1.24;nan;100894.50;5100525;28;20032;-72
2022/03/08 07:19:57;;;;;;;41.80;18.13;;;;;;;-0.96;nan;100916.16;5100190;28;20040;-76
2022/03/08 07:22:22;;;;;;;39.75;18.40;;;;;;;-0.92;nan;100898.59;5100112;28;20035;-75
2022/03/08 07:24:47;;;;;;;42.35;19.02;;;;;;;-0.86;nan;100900.63;5084468;28;20031;-75
2022/03/08 07:27:13;;;;;;;43.47;19.40;;;;;;;-0.73;nan;100913.25;5091915;28;20032;-71
2022/03/08 07:29:38;;;;;;;38.70;18.25;;;;;;;-0.95;nan;100867.84;5094108;28;20032;-70
2022/03/08 07:32:04;;;;;;;38.97;16.67;;;;;;;-0.66;nan;100907.38;5080357;28;21236;-75
2022/03/08 07:34:30;;;;;;;43.28;19.58;;;;;;;-0.68;nan;100880.84;5084707;28;20058;-70
2022/03/08 07:36:55;;;;;;;43.70;19.05;;;;;;;-0.38;nan;100915.22;5076853;28;20035;-70
2022/03/08 07:39:20;;;;;;;39.90;18.20;;;;;;;-0.44;nan;100902.84;5097791;28;20044;-70
2022/03/08 07:41:46;;;;;;;40.50;18.80;;;;;;;-0.38;nan;100924.75;5091106;28;20047;-69
2022/03/08 07:44:11;;;;;;;42.22;19.30;;;;;;;-0.33;nan;100912.22;5098186;28;20024;-69
2022/03/08 07:46:36;;;;;;;45.80;20.27;;;;;;;-0.19;nan;100921.28;5098597;28;20028;-72
2022/03/08 07:49:02;;;;;;;47.30;20.05;;;;;;;-0.08;nan;100921.13;5102134;28;20036;-74
2022/03/08 07:51:28;;;;;;;42.65;19.42;;;;;;;-0.05;nan;100907.88;5104007;28;20143;-74
2022/03/08 07:53:53;;;;;;;40.08;19.17;;;;;;;-0.06;nan;100908.84;5099838;28;20134;-74
2022/03/08 07:56:19;;;;;;;47.50;20.85;;;;;;;-0.01;nan;100897.09;5097557;28;20446;-74
2022/03/08 07:58:46;;;;;;;50.85;21.65;;;;;;;0.13;nan;100916.53;5103359;28;20052;-73
2022/03/08 08:01:12;;;;;;;45.42;18.98;;;;;;;0.19;nan;100923.72;5097187;28;20048;-73
2022/03/08 08:03:37;;;;;;;43.33;18.83;;;;;;;0.15;nan;100916.38;5095256;28;20063;-73
2022/03/08 08:06:04;;;;;;;39.05;19.38;;;;;;;0.12;nan;100893.34;5076766;28;20048;-73
2022/03/08 08:08:29;;;;;;;38.40;18.00;;;;;;;0.27;nan;100901.47;5095856;28;20413;-73
2022/03/08 08:10:54;;;;;;;47.55;18.02;;;;;;;0.28;nan;100896.13;5098050;28;20057;-73
2022/03/08 08:13:20;;;;;;;37.47;18.35;;;;;;;0.31;nan;100898.44;5089826;28;20028;-70
2022/03/08 08:15:45;;;;;;;38.13;18.38;;;;;;;0.39;nan;100897.72;5092956;28;20422;-73
2022/03/08 08:18:11;;;;;;;35.25;16.73;;;;;;;0.47;nan;100902.16;5099525;28;20038;-72
2022/03/08 08:20:36;;;;;;;39.22;18.00;;;;;;;0.53;nan;100901.59;5095843;28;20522;-74
2022/03/08 08:23:02;;;;;;;35.38;17.75;;;;;;;0.51;nan;100891.34;5080086;28;20032;-73
2022/03/08 08:25:27;;;;;;;34.17;16.80;;;;;;;0.56;nan;100890.91;5107363;28;20035;-75
2022/03/08 08:27:52;;;;;;;40.97;18.17;;;;;;;0.61;nan;100881.72;5105599;28;20062;-73
2022/03/08 08:30:18;;;;;;;33.55;16.73;;;;;;;0.67;nan;100888.13;5079267;28;20039;-74
2022/03/08 08:32:44;;;;;;;37.55;17.05;;;;;;;0.82;nan;100903.97;5092686;28;20039;-72
2022/03/08 08:35:09;;;;;;;41.60;17.95;;;;;;;0.69;nan;100878.38;5086119;28;20035;-73
2022/03/08 08:37:35;;;;;;;31.77;15.93;;;;;;;0.72;nan;100882.47;5079413;28;20085;-73
2022/03/08 08:40:02;;;;;;;35.70;16.80;;;;;;;0.81;nan;100889.34;5080670;28;20081;-74
2022/03/08 08:42:28;;;;;;;36.40;17.55;;;;;;;0.92;nan;100881.34;5094769;28;20461;-73
2022/03/08 08:44:53;;;;;;;34.83;16.63;;;;;;;1.01;nan;100879.66;5085496;28;20036;-72
2022/03/08 08:47:18;;;;;;;35.55;17.13;;;;;;;1.19;nan;100905.53;5100118;28;20050;-72
2022/03/08 08:49:44;;;;;;;33.10;16.33;;;;;;;1.10;nan;100872.72;5093957;28;20048;-72
2022/03/08 08:52:11;;;;;;;32.63;16.92;;;;;;;1.31;nan;100900.94;5102768;28;20043;-72
2022/03/08 08:54:37;;;;;;;34.38;16.60;;;;;;;1.28;nan;100882.09;5091442;28;20035;-72
2022/03/08 08:57:02;;;;;;;34.00;15.98;;;;;;;1.39;nan;100883.66;5096560;28;20039;-73
2022/03/08 08:59:28;;;;;;;38.75;16.85;;;;;;;1.57;nan;100898.34;5097074;28;20031;-73
2022/03/08 09:01:53;;;;;;;29.15;15.38;;;;;;;1.46;nan;100884.66;5093729;28;20036;-74
2022/03/08 09:04:19;;;;;;;29.67;15.63;;;;;;;1.64;nan;100883.78;5096065;28;20686;-74
2022/03/08 09:06:44;;;;;;;28.08;14.07;;;;;;;1.66;nan;100880.06;5093351;28;20779;-73
2022/03/08 09:09:10;;;;;;;34.83;14.63;;;;;;;1.72;nan;100875.22;5100583;28;20039;-74
2022/03/08 09:11:36;;;;;;;31.27;14.90;;;;;;;1.71;nan;100866.59;5090254;28;20057;-74
2022/03/08 09:14:02;;;;;;;31.08;14.85;;;;;;;1.73;nan;100874.25;5097784;28;20118;-74
2022/03/08 09:16:28;;;;;;;30.83;15.05;;;;;;;1.82;nan;100879.34;5097911;28;20380;-74
2022/03/08 09:18:53;;;;;;;31.65;15.48;;;;;;;1.83;nan;100877.53;5092627;28;20032;-74
2022/03/08 09:21:19;;;;;;;34.97;15.55;;;;;;;1.86;nan;100877.22;5078947;28;20031;-74
2022/03/08 09:23:44;;;;;;;35.45;14.75;;;;;;;2.06;nan;100888.16;5099110;28;20032;-73
2022/03/08 09:26:10;;;;;;;31.25;15.70;;;;;;;2.13;nan;100887.41;5103870;28;20031;-73
2022/03/08 09:28:36;;;;;;;31.35;15.63;;;;;;;2.14;nan;100872.63;5098937;28;20040;-73
2022/03/08 09:31:01;;;;;;;31.45;15.95;;;;;;;2.32;nan;100881.13;5103405;28;20042;-73
2022/03/08 09:33:27;;;;;;;32.72;15.35;;;;;;;2.20;nan;100846.00;5105669;28;20052;-74
2022/03/08 09:35:52;;;;;;;30.77;15.25;;;;;;;2.56;nan;100871.72;5108657;28;20065;-73
2022/03/08 09:38:18;;;;;;;31.42;16.50;;;;;;;2.57;nan;100870.75;5102175;28;20035;-72
2022/03/08 09:40:44;;;;;;;30.33;15.85;;;;;;;2.58;nan;100861.16;5113578;28;20039;-73
2022/03/08 09:43:09;;;;;;;29.10;14.30;;;;;;;2.43;nan;100840.19;5076989;28;20044;-72
2022/03/08 09:45:35;;;;;;;28.33;14.68;;;;;;;2.66;nan;100853.38;5086816;28;20395;-73
2022/03/08 09:48:01;;;;;;;26.23;12.85;;;;;;;2.72;nan;100852.72;5106445;28;20101;-73
2022/03/08 09:50:29;;;;;;;33.78;13.57;;;;;;;2.93;nan;100879.06;5096481;28;20033;-73
2022/03/08 09:52:57;;;;;;;29.58;12.93;;;;;;;2.85;nan;100853.06;5094896;28;20036;-72
2022/03/08 09:55:25;;;;;;;22.42;10.40;;;;;;;2.98;nan;100862.97;5102688;28;20060;-73
2022/03/08 09:57:52;;;;;;;19.23;9.98;;;;;;;2.99;nan;100859.38;5097254;28;20122;-72
2022/03/08 10:00:18;;;;;;;19.95;10.70;;;;;;;3.18;nan;100868.63;5097973;28;20039;-74
2022/03/08 10:02:57;;;;;;;21.35;11.32;;;;;;;3.20;nan;100862.28;5090969;28;20032;-72
2022/03/08 10:05:28;;;;;;;37.83;14.02;;;;;;;3.31;nan;100861.16;5078741;28;20110;-72
2022/03/08 10:08:19;;;;;;;24.67;11.77;;;;;;;3.39;nan;100866.31;5094996;28;20031;-73
2022/03/08 10:10:51;;;;;;;20.33;10.73;;;;;;;3.47;nan;100870.72;5100175;28;20193;-72
2022/03/08 10:13:19;;;;;;;19.55;10.25;;;;;;;3.53;nan;100866.63;5094953;28;20036;-72
2022/03/08 10:15:44;;;;;;;19.50;10.00;;;;;;;3.47;nan;100857.72;5074295;28;20028;-73
2022/03/08 10:18:10;;;;;;;23.65;11.73;;;;;;;3.45;nan;100864.03;5108116;28;20039;-73
2022/03/08 10:20:36;;;;;;;20.25;10.63;;;;;;;3.49;nan;100863.53;5098624;28;20101;-73
2022/03/08 10:23:11;;;;;;;21.20;10.82;;;;;;;3.49;nan;100853.13;5085615;28;20036;-74
2022/03/08 10:25:36;;;;;;;16.35;8.40;;;;;;;3.57;nan;100852.31;5103061;28;20698;-73
2022/03/08 10:28:05;;;;;;;15.65;8.38;;;;;;;3.70;nan;100860.38;5097293;28;20099;-73
2022/03/08 10:30:42;;;;;;;14.68;6.85;;;;;;;3.83;nan;100854.63;5085899;28;20043;-73
2022/03/08 10:33:07;;;;;;;13.15;6.85;;;;;;;3.87;nan;100849.91;5078183;28;20424;-74
2022/03/08 10:35:39;;;;;;;14.13;6.75;;;;;;;3.83;nan;100834.63;5102015;28;20032;-74
2022/03/08 10:38:08;;;;;;;15.93;6.70;;;;;;;4.00;nan;100847.56;5078815;28;20051;-73
2022/03/08 10:40:34;;;;;;;16.27;8.50;;;;;;;3.92;nan;100845.81;5092163;28;20035;-73
2022/03/08 10:43:01;;;;;;;18.00;8.40;;;;;;;3.91;nan;100838.97;5104834;28;20138;-73
2022/03/08 10:45:28;;;;;;;19.08;9.18;;;;;;;4.04;nan;100852.25;5107040;28;20077;-73
2022/03/08 10:47:54;;;;;;;16.90;9.80;;;;;;;4.13;nan;100855.63;5085901;28;20038;-72
2022/03/08 10:50:31;;;;;;;16.75;8.77;;;;;;;4.17;nan;100850.91;5081674;28;20134;-73
2022/03/08 10:52:58;;;;;;;15.73;8.35;;;;;;;4.15;nan;100843.25;5107035;28;20028;-72
2022/03/08 10:55:30;;;;;;;17.13;8.43;;;;;;;4.12;nan;100833.19;5106097;28;20086;-72
2022/03/08 10:58:16;;;;;;;16.73;8.65;;;;;;;4.32;nan;100837.94;5096687;28;20028;-72
2022/03/08 11:00:45;;;;;;;17.83;9.32;;;;;;;4.18;nan;100816.84;5090714;28;20036;-71
2022/03/08 11:03:13;;;;;;;16.98;8.90;;;;;;;4.24;nan;100831.81;5096375;28;20130;-70
2022/03/08 11:05:47;;;;;;;17.77;10.10;;;;;;;4.30;nan;100834.69;5103006;28;20032;-73
2022/03/08 11:08:13;;;;;;;15.25;7.75;;;;;;;4.31;nan;100826.72;5094522;28;20085;-70
2022/03/08 11:10:40;;;;;;;13.20;7.35;;;;;;;4.31;nan;100823.28;5100493;28;20424;-70
2022/03/08 11:13:06;;;;;;;16.60;7.82;;;;;;;4.36;nan;100823.59;5108136;28;20540;-70
2022/03/08 11:15:34;;;;;;;16.60;8.02;;;;;;;4.55;nan;100836.16;5095393;28;20397;-73
2022/03/08 11:18:03;;;;;;;12.00;6.93;;;;;;;4.62;nan;100831.03;5097535;28;21558;-73
2022/03/08 11:20:28;;;;;;;12.13;6.72;;;;;;;4.64;nan;100826.47;5097475;28;20040;-74
2022/03/08 11:22:56;;;;;;;15.00;7.07;;;;;;;4.74;nan;100828.81;5101183;28;20104;-73
2022/03/08 11:25:34;;;;;;;14.85;6.80;;;;;;;5.23;nan;100878.00;5094734;28;20032;-72